Decoded Metar for KHUF (TERRE HAUTE in IN, USA) (IATA:HUF) | Meteo·Mobile Aviation Weather
aviador You're here:

KHUF Decoded Metar

TERRE HAUTE in IN, USA
Report Time2018-09-21 10:53:00
UTC Time2018-09-21 11:29:44
Flight Rules vfr VFR
Wind200° at 09 kt
W.Decomp.*RWY 18: 8.3 kt HW 3.4 kt RCW
RWY 23: 7.9 kt HW 4.2 kt LCW
RWY 14: 4.2 kt HW 7.9 kt RCW
W.Rank200° ranks 3
Current wind is above 200° avg. (8.7)
Visibility9999 m
Phenomena:N/A
Clouds:N/A
Expected CloudBase > 2,000 ft AGL from Temp-Dew spread
CeilingNone
Temp24°C (ISA +10)
Dew Point19°C (74% RH)
QNH1014 hPa
Density Alt2,024 ft
Elevation587 ft
Report Wrong Elevation
Raw Report
KHUF 211053Z 20009KT 10SM CLR 24/19 A2994 RMK AO2 SLP133
T02390189=

Extra information for KHUF:More info

Metar Taf Metar & Taf Last 4 Metars F.Rules Stats Wind Profile Meteogram Temp Stats Airport Information Weather charts Add Link Nearby VenuesMetar ALERT Operation Metar Decoded Social comments

AIRNAV info for KHUF